Ana Sayfa
METAR-TAF:

METAR-TAF

Havaalanları :

Mahikeng, Güney Afrika

Enlem: 25-47S, Boylam: 025-32E, yükseklik: 1281 m

Güncel hava durumu gözlemi

Rapor saat 23:00 UTC de 24 dakika önce yapıldı.
Rüzgar doğu/güneydoğudan 4 kt
Sıcaklık 15°C
Nem 39%
Basınç 1020 hPa

METAR: FAMM 152300Z AUTO 11004KT //// // ////// 15/01 Q1020

Saat: 01:24 (23:24 UTC)

Tahmin

Rapor saat 09:00 UTC de 14 saat ve 24 dakika önce yapıldı.
Ayın 15'si saat 10 UTC'den ayın 15'si saat 18 UTC'ye kadar geçerli Tahmin
Rüzgar değişken yönden 3 kt
Görüş mesafesi 10 km veya daha fazla
1500 m altında bulut yok ve kümülonimbus yok
Dönüşüyor
ayın 15'si saat 10 UTC'den ayın 15'si saat 12 UTC'ye kadar
Rüzgar güneybatıdan 8 kt
Dönüşüyor
ayın 15'si saat 16 UTC'den ayın 15'si saat 18 UTC'ye kadar
Rüzgar değişken yönden 3 kt

TAF: FAMM 150900Z 1510/1518 VRB03KT CAVOK BECMG 1510/1512 22008KT BECMG 1516/1518 VRB03KT TX28/1513Z TN20/1518Z

4.000'den fazla havaalanı için hava durumu gözlemleri ve tahminleri (METAR ve TAF raporları).

Kullanılabilir istasyonlar harita üzerinde sarı ve kırmızı noktalarla gösterilir.

İstasyonun adını görmek için fareyi noktanın üzerinde gezdirin.

Sonrasında hava gözlem ve tahminlerini görmek için tıklayın.

Haritayı değiştirmek için: yaklaştırmak için siyah artı işaretli yeşil düğmeye ve uzaklaştırmak için de eksi işaretli düğmeye hızla tıklayın; bitişik haritalar için yeşil okları kullanın.


METAR-TAF: